UAL81 BGGH-KEWR
Flight info
| Callsign | UAL81 |
|---|---|
| Flight time | 4h 3m |
| Altitude | 32000 |
| Route | GH DCT IRBIM/N0454F320 DCT YBC/N0458F340 DCT ALB DCT HELON DCT FLOSI DCT CRANK DCT SHAFF DCT PATRN DCT TEB |
| Aircraft | B739/M-SDE2E3FGHIRWXY/LB1 |
Departure
| Time | 2026-05-03 21:27 |
|---|---|
| Airport | Nuuk International Airport (BGGH) |
Arrival
| Time | 2026-05-04 01:31 |
|---|---|
| Airport | Newark Liberty International Airport (KEWR) |
| Time | Latitude | Longitude | Altitude | Speed | Heading |
|---|---|---|---|---|---|
| 2026-05-03 20:53 | 64.18543 | -51.67834 | 287 ft | 0 kts | 141° |
| 2026-05-03 21:12 | 64.18549 | -51.67845 | 289 ft | 4 kts | 144° |
| 2026-05-03 21:12 | 64.18572 | -51.67877 | 295 ft | 4 kts | 158° |
| 2026-05-03 21:12 | 64.18598 | -51.67893 | 291 ft | 4 kts | 175° |
| 2026-05-03 21:13 | 64.18624 | -51.67891 | 290 ft | 4 kts | 193° |
| 2026-05-03 21:13 | 64.18649 | -51.67872 | 291 ft | 4 kts | 204° |
| 2026-05-03 21:13 | 64.18670 | -51.67852 | 290 ft | 0 kts | 199° |
| 2026-05-03 21:22 | 64.18669 | -51.67852 | 290 ft | 1 kts | 199° |
| 2026-05-03 21:22 | 64.18654 | -51.67864 | 291 ft | 4 kts | 199° |
| 2026-05-03 21:22 | 64.18625 | -51.67911 | 289 ft | 6 kts | 240° |
| 2026-05-03 21:22 | 64.18629 | -51.68020 | 291 ft | 8 kts | 293° |
| 2026-05-03 21:23 | 64.18654 | -51.68157 | 288 ft | 10 kts | 293° |
| 2026-05-03 21:23 | 64.18713 | -51.68205 | 288 ft | 11 kts | 17° |
| 2026-05-03 21:23 | 64.18797 | -51.68145 | 288 ft | 14 kts | 18° |
| 2026-05-03 21:23 | 64.18906 | -51.68062 | 288 ft | 20 kts | 18° |
| 2026-05-03 21:24 | 64.19058 | -51.67949 | 290 ft | 26 kts | 18° |
| 2026-05-03 21:24 | 64.19242 | -51.67812 | 286 ft | 28 kts | 18° |
| 2026-05-03 21:24 | 64.19421 | -51.67678 | 286 ft | 26 kts | 18° |
| 2026-05-03 21:24 | 64.19587 | -51.67556 | 289 ft | 25 kts | 18° |
| 2026-05-03 21:25 | 64.19745 | -51.67437 | 292 ft | 23 kts | 17° |
| 2026-05-03 21:25 | 64.19897 | -51.67339 | 288 ft | 22 kts | 6° |
| 2026-05-03 21:25 | 64.20001 | -51.67328 | 293 ft | 8 kts | 20° |
| 2026-05-03 21:25 | 64.20016 | -51.67285 | 293 ft | 3 kts | 84° |
| 2026-05-03 21:26 | 64.20003 | -51.67255 | 293 ft | 3 kts | 160° |
| 2026-05-03 21:26 | 64.19984 | -51.67257 | 292 ft | 3 kts | 195° |
| 2026-05-03 21:26 | 64.19976 | -51.67263 | 294 ft | 0 kts | 199° |
| 2026-05-03 21:27 | 64.19794 | -51.67402 | 291 ft | 65 kts | 198° |
| 2026-05-03 21:27 | 64.19145 | -51.67884 | 288 ft | 131 kts | 198° |
| 2026-05-03 21:27 | 64.18117 | -51.68661 | 411 ft | 173 kts | 198° |
| 2026-05-03 21:27 | 64.16922 | -51.69544 | 1035 ft | 187 kts | 198° |
| 2026-05-03 21:28 | 64.15737 | -51.71001 | 1807 ft | 201 kts | 217° |
| 2026-05-03 21:28 | 64.14781 | -51.73319 | 2728 ft | 200 kts | 227° |
| 2026-05-03 21:28 | 64.13856 | -51.75759 | 3299 ft | 208 kts | 226° |
| 2026-05-03 21:28 | 64.12838 | -51.78363 | 3315 ft | 234 kts | 225° |
| 2026-05-03 21:29 | 64.11739 | -51.81113 | 3874 ft | 234 kts | 225° |
| 2026-05-03 21:29 | 64.10600 | -51.83935 | 4255 ft | 249 kts | 225° |
| 2026-05-03 21:29 | 64.09417 | -51.86862 | 4900 ft | 252 kts | 226° |
| 2026-05-03 21:29 | 64.08208 | -51.89843 | 5490 ft | 259 kts | 226° |
| 2026-05-03 21:30 | 64.07013 | -51.92775 | 6444 ft | 246 kts | 226° |
| 2026-05-03 21:30 | 64.05867 | -51.95567 | 7377 ft | 238 kts | 227° |
| 2026-05-03 21:30 | 64.04709 | -51.98374 | 7766 ft | 251 kts | 227° |
| 2026-05-03 21:30 | 64.03500 | -52.01287 | 8410 ft | 250 kts | 227° |
| 2026-05-03 21:31 | 64.02332 | -52.04111 | 9366 ft | 238 kts | 227° |
| 2026-05-03 21:31 | 64.01211 | -52.06832 | 10148 ft | 234 kts | 228° |
| 2026-05-03 21:31 | 64.00065 | -52.09562 | 10427 ft | 251 kts | 226° |
| 2026-05-03 21:31 | 63.98740 | -52.12480 | 10606 ft | 272 kts | 224° |
| 2026-05-03 21:32 | 63.97318 | -52.15489 | 10782 ft | 292 kts | 224° |
| 2026-05-03 21:32 | 63.95779 | -52.18671 | 11172 ft | 304 kts | 223° |
| 2026-05-03 21:32 | 63.94193 | -52.21892 | 11801 ft | 307 kts | 223° |
| 2026-05-03 21:32 | 63.92587 | -52.25114 | 12480 ft | 309 kts | 222° |
| 2026-05-03 21:33 | 63.90957 | -52.28353 | 13136 ft | 312 kts | 222° |
| 2026-05-03 21:33 | 63.89312 | -52.31603 | 13786 ft | 315 kts | 222° |
| 2026-05-03 21:33 | 63.87646 | -52.34875 | 14380 ft | 317 kts | 222° |
| 2026-05-03 21:33 | 63.85968 | -52.38156 | 14987 ft | 319 kts | 221° |
| 2026-05-03 21:34 | 63.84280 | -52.41448 | 15569 ft | 322 kts | 221° |
| 2026-05-03 21:34 | 63.82576 | -52.44763 | 16139 ft | 325 kts | 221° |
| 2026-05-03 21:34 | 63.80850 | -52.48113 | 16697 ft | 328 kts | 221° |
| 2026-05-03 21:34 | 63.79109 | -52.51482 | 17260 ft | 331 kts | 221° |
| 2026-05-03 21:35 | 63.77379 | -52.54826 | 17813 ft | 333 kts | 221° |
| 2026-05-03 21:35 | 63.75604 | -52.58249 | 18371 ft | 336 kts | 221° |
| 2026-05-03 21:35 | 63.73815 | -52.61694 | 18861 ft | 339 kts | 221° |
| 2026-05-03 21:35 | 63.72013 | -52.65157 | 19343 ft | 341 kts | 221° |
| 2026-05-03 21:36 | 63.70197 | -52.68641 | 19837 ft | 343 kts | 221° |
| 2026-05-03 21:36 | 63.68368 | -52.72143 | 20317 ft | 346 kts | 221° |
| 2026-05-03 21:36 | 63.66521 | -52.75673 | 20796 ft | 349 kts | 221° |
| 2026-05-03 21:36 | 63.64661 | -52.79221 | 21279 ft | 352 kts | 221° |
| 2026-05-03 21:37 | 63.62786 | -52.82794 | 21752 ft | 354 kts | 221° |
| 2026-05-03 21:37 | 63.60920 | -52.86342 | 22218 ft | 357 kts | 221° |
| 2026-05-03 21:37 | 63.58989 | -52.90005 | 22684 ft | 360 kts | 221° |
| 2026-05-03 21:37 | 63.57094 | -52.93596 | 23141 ft | 362 kts | 220° |
| 2026-05-03 21:38 | 63.55155 | -52.97261 | 23586 ft | 365 kts | 220° |
| 2026-05-03 21:38 | 63.53203 | -53.00946 | 23978 ft | 368 kts | 220° |
| 2026-05-03 21:38 | 63.51878 | -53.03443 | 24247 ft | 369 kts | 220° |
| 2026-05-03 21:38 | 63.49933 | -53.07102 | 24635 ft | 371 kts | 220° |
| 2026-05-03 21:39 | 63.47280 | -53.12083 | 25149 ft | 373 kts | 220° |
| 2026-05-03 21:39 | 63.45956 | -53.14564 | 25399 ft | 375 kts | 220° |
| 2026-05-03 21:39 | 63.43951 | -53.18316 | 25775 ft | 377 kts | 220° |
| 2026-05-03 21:39 | 63.41932 | -53.22087 | 26142 ft | 379 kts | 220° |
| 2026-05-03 21:40 | 63.39906 | -53.25862 | 26505 ft | 381 kts | 220° |
| 2026-05-03 21:40 | 63.37864 | -53.29662 | 26876 ft | 383 kts | 220° |
| 2026-05-03 21:40 | 63.35814 | -53.33468 | 27213 ft | 385 kts | 220° |
| 2026-05-03 21:40 | 63.33750 | -53.37293 | 27565 ft | 387 kts | 220° |
| 2026-05-03 21:41 | 63.31671 | -53.41139 | 27906 ft | 389 kts | 219° |
| 2026-05-03 21:41 | 63.29583 | -53.44993 | 28241 ft | 391 kts | 219° |
| 2026-05-03 21:41 | 63.27510 | -53.48813 | 28565 ft | 393 kts | 219° |
| 2026-05-03 21:41 | 63.25398 | -53.52696 | 28896 ft | 395 kts | 219° |
| 2026-05-03 21:42 | 63.23270 | -53.56602 | 29215 ft | 398 kts | 219° |
| 2026-05-03 21:42 | 63.21131 | -53.60520 | 29528 ft | 400 kts | 219° |
| 2026-05-03 21:42 | 63.18979 | -53.64453 | 29827 ft | 402 kts | 219° |
| 2026-05-03 21:42 | 63.16818 | -53.68396 | 30124 ft | 404 kts | 219° |
| 2026-05-03 21:43 | 63.14639 | -53.72362 | 30380 ft | 405 kts | 219° |
| 2026-05-03 21:43 | 63.12457 | -53.76328 | 30620 ft | 407 kts | 219° |
| 2026-05-03 21:43 | 63.10263 | -53.80306 | 30864 ft | 409 kts | 219° |
| 2026-05-03 21:43 | 63.08053 | -53.84305 | 31095 ft | 411 kts | 219° |
| 2026-05-03 21:44 | 63.05837 | -53.88308 | 31324 ft | 412 kts | 219° |
| 2026-05-03 21:44 | 63.03611 | -53.92320 | 31545 ft | 414 kts | 219° |
| 2026-05-03 21:44 | 63.01373 | -53.96345 | 31774 ft | 415 kts | 218° |
| 2026-05-03 21:44 | 62.99160 | -54.00318 | 31975 ft | 417 kts | 218° |
| 2026-05-03 21:45 | 62.96908 | -54.04352 | 32115 ft | 419 kts | 218° |
| 2026-05-03 21:45 | 62.94630 | -54.08426 | 32108 ft | 423 kts | 218° |
| 2026-05-03 21:45 | 62.90032 | -54.16619 | 32128 ft | 429 kts | 218° |
| 2026-05-03 21:46 | 62.85357 | -54.24916 | 32127 ft | 435 kts | 218° |
| 2026-05-03 21:46 | 62.80625 | -54.33277 | 32114 ft | 438 kts | 218° |
| 2026-05-03 21:47 | 62.75868 | -54.41649 | 32110 ft | 439 kts | 218° |
| 2026-05-03 21:47 | 62.71103 | -54.50000 | 32110 ft | 440 kts | 218° |
| 2026-05-03 21:48 | 62.66352 | -54.58289 | 32108 ft | 439 kts | 217° |
| 2026-05-03 21:48 | 62.61567 | -54.66602 | 32103 ft | 439 kts | 217° |
| 2026-05-03 21:49 | 62.56789 | -54.74867 | 32101 ft | 438 kts | 217° |
| 2026-05-03 21:49 | 62.52055 | -54.83022 | 32100 ft | 437 kts | 217° |
| 2026-05-03 21:50 | 62.47292 | -54.91193 | 32099 ft | 436 kts | 217° |
| 2026-05-03 21:50 | 62.42536 | -54.99319 | 32092 ft | 436 kts | 217° |
| 2026-05-03 21:51 | 62.37776 | -55.07416 | 32090 ft | 435 kts | 217° |
| 2026-05-03 21:51 | 62.33009 | -55.15491 | 32088 ft | 435 kts | 216° |
| 2026-05-03 21:52 | 62.28269 | -55.23489 | 32084 ft | 435 kts | 216° |
| 2026-05-03 21:52 | 62.23494 | -55.31511 | 32082 ft | 436 kts | 216° |
| 2026-05-03 21:53 | 62.18715 | -55.39508 | 32075 ft | 436 kts | 216° |
| 2026-05-03 21:53 | 62.13920 | -55.47497 | 32071 ft | 436 kts | 216° |
| 2026-05-03 21:54 | 62.09112 | -55.55477 | 32072 ft | 437 kts | 216° |
| 2026-05-03 21:54 | 62.04336 | -55.63369 | 32066 ft | 437 kts | 216° |
| 2026-05-03 21:55 | 61.99523 | -55.71292 | 32060 ft | 437 kts | 216° |
| 2026-05-03 21:55 | 61.94703 | -55.79193 | 32057 ft | 437 kts | 216° |
| 2026-05-03 21:56 | 61.89882 | -55.87063 | 32058 ft | 437 kts | 216° |
| 2026-05-03 21:56 | 61.85051 | -55.94918 | 32043 ft | 437 kts | 216° |
| 2026-05-03 21:57 | 61.80228 | -56.02728 | 32045 ft | 436 kts | 215° |
| 2026-05-03 21:57 | 61.75400 | -56.10514 | 32040 ft | 436 kts | 215° |
| 2026-05-03 21:58 | 61.70576 | -56.18263 | 32031 ft | 435 kts | 215° |
| 2026-05-03 21:58 | 61.65756 | -56.25972 | 32027 ft | 434 kts | 215° |
| 2026-05-03 21:59 | 61.60973 | -56.33593 | 32021 ft | 434 kts | 215° |
| 2026-05-03 21:59 | 61.56159 | -56.41233 | 32022 ft | 433 kts | 215° |
| 2026-05-03 22:00 | 61.51350 | -56.48835 | 32024 ft | 432 kts | 215° |
| 2026-05-03 22:00 | 61.46539 | -56.56410 | 32008 ft | 433 kts | 215° |
| 2026-05-03 22:01 | 61.41715 | -56.63974 | 32000 ft | 433 kts | 215° |
| 2026-05-03 22:01 | 61.36895 | -56.71502 | 32002 ft | 433 kts | 215° |
| 2026-05-03 22:02 | 61.32066 | -56.79016 | 31988 ft | 433 kts | 215° |
| 2026-05-03 22:02 | 61.27231 | -56.86509 | 31993 ft | 433 kts | 215° |
| 2026-05-03 22:03 | 61.22429 | -56.93922 | 31986 ft | 433 kts | 214° |
| 2026-05-03 22:03 | 61.17595 | -57.01355 | 31982 ft | 433 kts | 214° |
| 2026-05-03 22:04 | 61.12758 | -57.08764 | 31972 ft | 433 kts | 214° |
| 2026-05-03 22:04 | 61.07910 | -57.16161 | 31972 ft | 433 kts | 214° |
| 2026-05-03 22:05 | 61.03058 | -57.23533 | 31961 ft | 433 kts | 214° |
| 2026-05-03 22:05 | 60.98199 | -57.30890 | 31962 ft | 433 kts | 213° |
| 2026-05-03 22:06 | 60.93333 | -57.38228 | 31950 ft | 434 kts | 213° |
| 2026-05-03 22:06 | 60.88488 | -57.45506 | 31961 ft | 434 kts | 213° |
| 2026-05-03 22:07 | 60.83606 | -57.52811 | 31948 ft | 434 kts | 213° |
| 2026-05-03 22:07 | 60.78721 | -57.60094 | 31947 ft | 435 kts | 213° |
| 2026-05-03 22:08 | 60.73813 | -57.67380 | 31944 ft | 435 kts | 213° |
| 2026-05-03 22:08 | 60.68904 | -57.74642 | 31933 ft | 436 kts | 212° |
| 2026-05-03 22:09 | 60.63982 | -57.81895 | 31928 ft | 436 kts | 212° |
| 2026-05-03 22:10 | 60.56622 | -57.92688 | 31919 ft | 436 kts | 212° |
| 2026-05-03 22:10 | 60.51695 | -57.99879 | 31924 ft | 436 kts | 212° |
| 2026-05-03 22:11 | 60.46761 | -58.07052 | 31919 ft | 436 kts | 212° |
| 2026-05-03 22:11 | 60.41858 | -58.14153 | 31914 ft | 436 kts | 212° |
| 2026-05-03 22:12 | 60.36920 | -58.21278 | 31896 ft | 436 kts | 212° |
| 2026-05-03 22:12 | 60.31974 | -58.28388 | 31909 ft | 436 kts | 212° |
| 2026-05-03 22:13 | 60.27029 | -58.35469 | 31891 ft | 436 kts | 211° |
| 2026-05-03 22:13 | 60.22070 | -58.42542 | 31911 ft | 436 kts | 211° |
| 2026-05-03 22:14 | 60.17135 | -58.49556 | 31887 ft | 437 kts | 211° |
| 2026-05-03 22:14 | 60.12167 | -58.56590 | 31899 ft | 437 kts | 211° |
| 2026-05-03 22:15 | 60.07193 | -58.63605 | 31899 ft | 437 kts | 211° |
| 2026-05-03 22:15 | 60.02213 | -58.70603 | 31901 ft | 437 kts | 211° |
| 2026-05-03 22:16 | 59.97258 | -58.77541 | 31892 ft | 437 kts | 211° |
| 2026-05-03 22:16 | 59.92265 | -58.84503 | 31887 ft | 438 kts | 211° |
| 2026-05-03 22:17 | 59.87268 | -58.91447 | 31874 ft | 438 kts | 211° |
| 2026-05-03 22:17 | 59.82268 | -58.98369 | 31884 ft | 437 kts | 211° |
| 2026-05-03 22:18 | 59.77270 | -59.05263 | 31872 ft | 437 kts | 211° |
| 2026-05-03 22:18 | 59.72263 | -59.12143 | 31892 ft | 437 kts | 210° |
| 2026-05-03 22:19 | 59.67262 | -59.18989 | 31867 ft | 437 kts | 210° |
| 2026-05-03 22:19 | 59.62290 | -59.25771 | 31881 ft | 437 kts | 210° |
| 2026-05-03 22:20 | 59.57284 | -59.32574 | 31871 ft | 437 kts | 210° |
| 2026-05-03 22:20 | 59.52275 | -59.39356 | 31886 ft | 436 kts | 210° |
| 2026-05-03 22:21 | 59.47265 | -59.46114 | 31868 ft | 437 kts | 210° |
| 2026-05-03 22:21 | 59.42249 | -59.52856 | 31879 ft | 437 kts | 210° |
| 2026-05-03 22:22 | 59.37223 | -59.59586 | 31868 ft | 437 kts | 210° |
| 2026-05-03 22:22 | 59.32188 | -59.66304 | 31881 ft | 437 kts | 210° |
| 2026-05-03 22:23 | 59.27155 | -59.72995 | 31868 ft | 438 kts | 210° |
| 2026-05-03 22:23 | 59.22148 | -59.79628 | 31879 ft | 438 kts | 210° |
| 2026-05-03 22:24 | 59.17095 | -59.86297 | 31865 ft | 438 kts | 210° |
| 2026-05-03 22:24 | 59.12044 | -59.92940 | 31878 ft | 438 kts | 210° |
| 2026-05-03 22:25 | 59.06987 | -59.99566 | 31866 ft | 438 kts | 210° |
| 2026-05-03 22:25 | 59.01927 | -60.06173 | 31876 ft | 438 kts | 210° |
| 2026-05-03 22:26 | 58.96866 | -60.12757 | 31866 ft | 438 kts | 210° |
| 2026-05-03 22:26 | 58.92659 | -60.18212 | 31877 ft | 437 kts | 210° |
| 2026-05-03 22:27 | 58.86775 | -60.25815 | 31864 ft | 437 kts | 210° |
| 2026-05-03 22:27 | 58.82534 | -60.31276 | 31875 ft | 437 kts | 210° |
| 2026-05-03 22:28 | 58.77473 | -60.37770 | 31873 ft | 437 kts | 210° |
| 2026-05-03 22:28 | 58.72444 | -60.44203 | 31890 ft | 436 kts | 210° |
| 2026-05-03 22:29 | 58.67382 | -60.50656 | 31873 ft | 436 kts | 210° |
| 2026-05-03 22:29 | 58.62216 | -60.56707 | 31889 ft | 434 kts | 206° |
| 2026-05-03 22:30 | 58.56909 | -60.62206 | 31874 ft | 434 kts | 205° |
| 2026-05-03 22:30 | 58.51590 | -60.67655 | 31887 ft | 434 kts | 205° |
| 2026-05-03 22:31 | 58.46273 | -60.73131 | 31879 ft | 434 kts | 205° |
| 2026-05-03 22:31 | 58.40962 | -60.78617 | 31881 ft | 434 kts | 205° |
| 2026-05-03 22:32 | 58.35678 | -60.84065 | 31886 ft | 434 kts | 205° |
| 2026-05-03 22:32 | 58.30364 | -60.89527 | 31872 ft | 434 kts | 205° |
| 2026-05-03 22:33 | 58.25043 | -60.94976 | 31874 ft | 434 kts | 205° |
| 2026-05-03 22:33 | 58.19723 | -61.00405 | 31874 ft | 434 kts | 205° |
| 2026-05-03 22:34 | 58.14390 | -61.05829 | 31875 ft | 434 kts | 205° |
| 2026-05-03 22:34 | 58.09100 | -61.11191 | 31879 ft | 434 kts | 205° |
| 2026-05-03 22:35 | 58.03775 | -61.16569 | 31866 ft | 434 kts | 205° |
| 2026-05-03 22:35 | 57.98452 | -61.21928 | 31883 ft | 434 kts | 205° |
| 2026-05-03 22:36 | 57.93116 | -61.27280 | 31867 ft | 434 kts | 205° |
| 2026-05-03 22:36 | 57.87819 | -61.32576 | 31877 ft | 433 kts | 205° |
| 2026-05-03 22:37 | 57.82492 | -61.37885 | 31862 ft | 433 kts | 205° |
| 2026-05-03 22:37 | 57.77159 | -61.43182 | 31881 ft | 433 kts | 205° |
| 2026-05-03 22:38 | 57.71832 | -61.48454 | 31882 ft | 433 kts | 205° |
| 2026-05-03 22:38 | 57.66501 | -61.53713 | 31885 ft | 433 kts | 206° |
| 2026-05-03 22:39 | 57.61175 | -61.58950 | 31874 ft | 433 kts | 206° |
| 2026-05-03 22:39 | 57.55844 | -61.64173 | 31879 ft | 432 kts | 206° |
| 2026-05-03 22:40 | 57.50512 | -61.69380 | 31872 ft | 432 kts | 206° |
| 2026-05-03 22:40 | 57.45179 | -61.74572 | 31882 ft | 432 kts | 206° |
| 2026-05-03 22:41 | 57.39875 | -61.79717 | 31871 ft | 432 kts | 206° |
| 2026-05-03 22:41 | 57.34541 | -61.84875 | 31880 ft | 432 kts | 206° |
| 2026-05-03 22:42 | 57.29197 | -61.90026 | 31867 ft | 432 kts | 206° |
| 2026-05-03 22:42 | 57.23853 | -61.95160 | 31873 ft | 432 kts | 206° |
| 2026-05-03 22:43 | 57.18516 | -62.00270 | 31866 ft | 432 kts | 206° |
| 2026-05-03 22:43 | 57.13208 | -62.05335 | 31879 ft | 432 kts | 206° |
| 2026-05-03 22:44 | 57.07866 | -62.10417 | 31870 ft | 432 kts | 206° |
| 2026-05-03 22:44 | 57.02519 | -62.15487 | 31876 ft | 432 kts | 205° |
| 2026-05-03 22:45 | 56.97182 | -62.20531 | 31867 ft | 431 kts | 205° |
| 2026-05-03 22:45 | 56.91847 | -62.25556 | 31882 ft | 431 kts | 205° |
| 2026-05-03 22:46 | 56.86513 | -62.30564 | 31877 ft | 431 kts | 205° |
| 2026-05-03 22:46 | 56.81175 | -62.35561 | 31874 ft | 431 kts | 205° |
| 2026-05-03 22:47 | 56.75834 | -62.40544 | 31879 ft | 430 kts | 205° |
| 2026-05-03 22:47 | 56.70502 | -62.45502 | 31878 ft | 430 kts | 205° |
| 2026-05-03 22:48 | 56.65167 | -62.50448 | 31882 ft | 430 kts | 205° |
| 2026-05-03 22:48 | 56.59862 | -62.55349 | 31884 ft | 430 kts | 205° |
| 2026-05-03 22:49 | 56.54520 | -62.60269 | 31874 ft | 430 kts | 204° |
| 2026-05-03 22:49 | 56.49176 | -62.65177 | 31877 ft | 431 kts | 204° |
| 2026-05-03 22:50 | 56.43829 | -62.70071 | 31874 ft | 431 kts | 204° |
| 2026-05-03 22:50 | 56.38481 | -62.74950 | 31901 ft | 431 kts | 204° |
| 2026-05-03 22:51 | 56.33122 | -62.79823 | 31876 ft | 431 kts | 204° |
| 2026-05-03 22:51 | 56.27759 | -62.84685 | 31892 ft | 431 kts | 204° |
| 2026-05-03 22:52 | 56.22431 | -62.89500 | 31885 ft | 431 kts | 203° |
| 2026-05-03 22:52 | 56.17063 | -62.94336 | 31901 ft | 431 kts | 203° |
| 2026-05-03 22:53 | 56.11702 | -62.99151 | 31896 ft | 430 kts | 203° |
| 2026-05-03 22:53 | 56.06381 | -63.03915 | 31892 ft | 430 kts | 202° |
| 2026-05-03 22:53 | 56.03720 | -63.06277 | 32343 ft | 421 kts | 207° |
| 2026-05-03 22:54 | 56.01145 | -63.08566 | 32101 ft | 404 kts | 207° |
| 2026-05-03 22:54 | 55.98681 | -63.10759 | 31998 ft | 387 kts | 207° |
| 2026-05-03 22:54 | 55.96311 | -63.12869 | 31939 ft | 374 kts | 208° |
| 2026-05-03 22:55 | 55.91624 | -63.17039 | 31909 ft | 380 kts | 208° |
| 2026-05-03 22:55 | 55.86870 | -63.21254 | 31911 ft | 387 kts | 207° |
| 2026-05-03 22:56 | 55.82020 | -63.25537 | 31903 ft | 390 kts | 207° |
| 2026-05-03 22:56 | 55.77149 | -63.29823 | 31906 ft | 390 kts | 207° |
| 2026-05-03 22:57 | 55.72288 | -63.34089 | 31901 ft | 390 kts | 207° |
| 2026-05-03 22:57 | 55.67428 | -63.38342 | 31902 ft | 388 kts | 207° |
| 2026-05-03 22:58 | 55.62585 | -63.42568 | 31898 ft | 387 kts | 207° |
| 2026-05-03 22:58 | 55.57762 | -63.46766 | 31904 ft | 385 kts | 207° |
| 2026-05-03 22:59 | 55.52989 | -63.50908 | 31904 ft | 384 kts | 207° |
| 2026-05-03 22:59 | 55.48204 | -63.55050 | 31907 ft | 382 kts | 207° |
| 2026-05-03 23:00 | 55.43427 | -63.59175 | 31896 ft | 381 kts | 207° |
| 2026-05-03 23:00 | 55.38666 | -63.63274 | 31903 ft | 380 kts | 207° |
| 2026-05-03 23:01 | 55.33914 | -63.67353 | 31911 ft | 379 kts | 207° |
| 2026-05-03 23:01 | 55.29158 | -63.71426 | 31909 ft | 379 kts | 207° |
| 2026-05-03 23:02 | 55.24444 | -63.75452 | 31909 ft | 380 kts | 207° |
| 2026-05-03 23:02 | 55.19692 | -63.79500 | 31901 ft | 380 kts | 207° |
| 2026-05-03 23:03 | 55.14929 | -63.83546 | 31897 ft | 380 kts | 207° |
| 2026-05-03 23:03 | 55.10167 | -63.87581 | 31899 ft | 380 kts | 207° |
| 2026-05-03 23:04 | 55.05396 | -63.91612 | 31895 ft | 380 kts | 207° |
| 2026-05-03 23:04 | 55.00630 | -63.95629 | 31895 ft | 380 kts | 206° |
| 2026-05-03 23:05 | 54.95889 | -63.99613 | 31900 ft | 380 kts | 206° |
| 2026-05-03 23:05 | 54.91124 | -64.03608 | 31892 ft | 379 kts | 206° |
| 2026-05-03 23:06 | 54.86365 | -64.07586 | 31892 ft | 379 kts | 206° |
| 2026-05-03 23:06 | 54.81621 | -64.11542 | 31891 ft | 378 kts | 206° |
| 2026-05-03 23:07 | 54.76910 | -64.15460 | 31890 ft | 377 kts | 206° |
| 2026-05-03 23:07 | 54.72183 | -64.19382 | 31890 ft | 376 kts | 206° |
| 2026-05-03 23:08 | 54.67452 | -64.23296 | 31885 ft | 376 kts | 206° |
| 2026-05-03 23:08 | 54.62737 | -64.27187 | 31888 ft | 375 kts | 206° |
| 2026-05-03 23:09 | 54.58017 | -64.31072 | 31889 ft | 375 kts | 206° |
| 2026-05-03 23:09 | 54.53306 | -64.34940 | 31888 ft | 375 kts | 206° |
| 2026-05-03 23:10 | 54.48627 | -64.38771 | 31879 ft | 375 kts | 206° |
| 2026-05-03 23:10 | 54.43912 | -64.42622 | 31880 ft | 375 kts | 206° |
| 2026-05-03 23:11 | 54.39196 | -64.46465 | 31874 ft | 375 kts | 206° |
| 2026-05-03 23:11 | 54.34481 | -64.50296 | 31880 ft | 375 kts | 206° |
| 2026-05-03 23:12 | 54.29762 | -64.54121 | 31875 ft | 375 kts | 205° |
| 2026-05-03 23:12 | 54.25074 | -64.57911 | 31877 ft | 375 kts | 205° |
| 2026-05-03 23:13 | 54.20355 | -64.61717 | 31874 ft | 375 kts | 205° |
| 2026-05-03 23:13 | 54.15635 | -64.65514 | 31867 ft | 375 kts | 205° |
| 2026-05-03 23:14 | 54.10915 | -64.69301 | 31862 ft | 375 kts | 205° |
| 2026-05-03 23:14 | 54.06195 | -64.73079 | 31862 ft | 375 kts | 205° |
| 2026-05-03 23:15 | 54.02240 | -64.76237 | 31863 ft | 375 kts | 205° |
| 2026-05-03 23:15 | 53.97537 | -64.79984 | 31864 ft | 375 kts | 205° |
| 2026-05-03 23:16 | 53.92805 | -64.83744 | 31863 ft | 375 kts | 205° |
| 2026-05-03 23:16 | 53.88078 | -64.87491 | 31859 ft | 375 kts | 205° |
| 2026-05-03 23:17 | 53.83377 | -64.91208 | 31859 ft | 375 kts | 205° |
| 2026-05-03 23:17 | 53.78642 | -64.94942 | 31859 ft | 375 kts | 205° |
| 2026-05-03 23:18 | 53.73912 | -64.98664 | 31858 ft | 375 kts | 205° |
| 2026-05-03 23:18 | 53.69177 | -65.02380 | 31856 ft | 375 kts | 204° |
| 2026-05-03 23:19 | 53.64441 | -65.06087 | 31847 ft | 375 kts | 204° |
| 2026-05-03 23:19 | 53.59738 | -65.09760 | 31840 ft | 375 kts | 204° |
| 2026-05-03 23:20 | 53.55001 | -65.13449 | 31840 ft | 375 kts | 204° |
| 2026-05-03 23:20 | 53.50260 | -65.17133 | 31844 ft | 375 kts | 204° |
| 2026-05-03 23:21 | 53.45525 | -65.20804 | 31841 ft | 375 kts | 204° |
| 2026-05-03 23:21 | 53.40782 | -65.24471 | 31848 ft | 375 kts | 204° |
| 2026-05-03 23:22 | 53.33664 | -65.29957 | 31844 ft | 375 kts | 204° |
| 2026-05-03 23:22 | 53.28918 | -65.33605 | 31847 ft | 375 kts | 204° |
| 2026-05-03 23:23 | 53.24190 | -65.37229 | 31848 ft | 376 kts | 204° |
| 2026-05-03 23:23 | 53.19431 | -65.40868 | 31848 ft | 376 kts | 204° |
| 2026-05-03 23:24 | 53.14666 | -65.44503 | 31845 ft | 377 kts | 204° |
| 2026-05-03 23:24 | 53.09895 | -65.48134 | 31850 ft | 377 kts | 203° |
| 2026-05-03 23:25 | 53.05112 | -65.51764 | 31845 ft | 377 kts | 203° |
| 2026-05-03 23:25 | 53.00363 | -65.55360 | 31845 ft | 378 kts | 203° |
| 2026-05-03 23:26 | 52.95576 | -65.58976 | 31843 ft | 378 kts | 203° |
| 2026-05-03 23:26 | 52.90785 | -65.62586 | 31843 ft | 378 kts | 203° |
| 2026-05-03 23:27 | 52.85986 | -65.66194 | 31840 ft | 379 kts | 203° |
| 2026-05-03 23:27 | 52.81181 | -65.69797 | 31843 ft | 379 kts | 203° |
| 2026-05-03 23:28 | 52.76363 | -65.73401 | 31837 ft | 380 kts | 202° |
| 2026-05-03 23:28 | 52.71545 | -65.76997 | 31835 ft | 380 kts | 202° |
| 2026-05-03 23:29 | 52.66747 | -65.80568 | 31838 ft | 381 kts | 202° |
| 2026-05-03 23:29 | 52.61912 | -65.84159 | 31841 ft | 381 kts | 202° |
| 2026-05-03 23:30 | 52.57095 | -65.87727 | 31838 ft | 382 kts | 202° |
| 2026-05-03 23:30 | 52.52226 | -65.91326 | 31837 ft | 382 kts | 202° |
| 2026-05-03 23:31 | 52.47368 | -65.94907 | 31834 ft | 383 kts | 202° |
| 2026-05-03 23:31 | 52.42535 | -65.98461 | 31839 ft | 383 kts | 202° |
| 2026-05-03 23:32 | 52.37663 | -66.02035 | 31835 ft | 384 kts | 202° |
| 2026-05-03 23:32 | 52.32783 | -66.05607 | 31833 ft | 384 kts | 202° |
| 2026-05-03 23:33 | 52.27902 | -66.09171 | 31832 ft | 384 kts | 202° |
| 2026-05-03 23:33 | 52.23014 | -66.12731 | 31834 ft | 385 kts | 202° |
| 2026-05-03 23:34 | 52.18116 | -66.16290 | 31831 ft | 385 kts | 202° |
| 2026-05-03 23:34 | 52.13209 | -66.19846 | 31829 ft | 386 kts | 202° |
| 2026-05-03 23:35 | 52.08306 | -66.23392 | 31829 ft | 386 kts | 201° |
| 2026-05-03 23:35 | 52.03426 | -66.26911 | 31817 ft | 386 kts | 201° |
| 2026-05-03 23:36 | 51.98508 | -66.30451 | 31829 ft | 387 kts | 201° |
| 2026-05-03 23:36 | 51.93585 | -66.33984 | 31820 ft | 387 kts | 201° |
| 2026-05-03 23:37 | 51.88650 | -66.37518 | 31824 ft | 388 kts | 201° |
| 2026-05-03 23:37 | 51.83730 | -66.41033 | 31827 ft | 388 kts | 201° |
| 2026-05-03 23:38 | 51.78784 | -66.44558 | 31823 ft | 388 kts | 201° |
| 2026-05-03 23:38 | 51.73831 | -66.48079 | 31822 ft | 389 kts | 201° |
| 2026-05-03 23:39 | 51.68878 | -66.51592 | 31814 ft | 389 kts | 201° |
| 2026-05-03 23:39 | 51.63911 | -66.55107 | 31828 ft | 389 kts | 201° |
| 2026-05-03 23:40 | 51.58950 | -66.58609 | 31817 ft | 390 kts | 201° |
| 2026-05-03 23:40 | 51.54007 | -66.62090 | 31816 ft | 390 kts | 201° |
| 2026-05-03 23:41 | 51.50117 | -66.64823 | 31819 ft | 390 kts | 201° |
| 2026-05-03 23:41 | 51.45137 | -66.68315 | 31817 ft | 391 kts | 201° |
| 2026-05-03 23:42 | 51.40143 | -66.71808 | 31818 ft | 391 kts | 200° |
| 2026-05-03 23:42 | 51.35144 | -66.75296 | 31816 ft | 391 kts | 200° |
| 2026-05-03 23:43 | 51.30148 | -66.78775 | 31826 ft | 392 kts | 200° |
| 2026-05-03 23:43 | 51.25171 | -66.82232 | 31817 ft | 392 kts | 200° |
| 2026-05-03 23:44 | 51.20150 | -66.85710 | 31817 ft | 393 kts | 200° |
| 2026-05-03 23:44 | 51.15121 | -66.89186 | 31810 ft | 394 kts | 200° |
| 2026-05-03 23:45 | 51.10084 | -66.92659 | 31807 ft | 395 kts | 200° |
| 2026-05-03 23:45 | 51.05039 | -66.96130 | 31808 ft | 395 kts | 200° |
| 2026-05-03 23:46 | 50.99980 | -66.99602 | 31805 ft | 396 kts | 200° |
| 2026-05-03 23:46 | 50.94955 | -67.03043 | 31825 ft | 396 kts | 200° |
| 2026-05-03 23:47 | 50.89891 | -67.06501 | 31806 ft | 396 kts | 200° |
| 2026-05-03 23:47 | 50.84828 | -67.09952 | 31806 ft | 396 kts | 200° |
| 2026-05-03 23:48 | 50.79764 | -67.13395 | 31806 ft | 397 kts | 200° |
| 2026-05-03 23:48 | 50.74687 | -67.16838 | 31802 ft | 397 kts | 200° |
| 2026-05-03 23:49 | 50.69603 | -67.20277 | 31807 ft | 398 kts | 200° |
| 2026-05-03 23:49 | 50.64511 | -67.23714 | 31807 ft | 398 kts | 200° |
| 2026-05-03 23:50 | 50.60270 | -67.26571 | 31809 ft | 399 kts | 200° |
| 2026-05-03 23:50 | 50.54294 | -67.30587 | 31803 ft | 400 kts | 200° |
| 2026-05-03 23:51 | 50.49178 | -67.34016 | 31801 ft | 400 kts | 200° |
| 2026-05-03 23:51 | 50.44053 | -67.37442 | 31805 ft | 401 kts | 200° |
| 2026-05-03 23:52 | 50.38948 | -67.40847 | 31804 ft | 401 kts | 200° |
| 2026-05-03 23:52 | 50.33808 | -67.44268 | 31801 ft | 401 kts | 200° |
| 2026-05-03 23:53 | 50.28663 | -67.47684 | 31793 ft | 402 kts | 200° |
| 2026-05-03 23:53 | 50.23510 | -67.51097 | 31798 ft | 402 kts | 200° |
| 2026-05-03 23:54 | 50.18352 | -67.54506 | 31794 ft | 403 kts | 200° |
| 2026-05-03 23:54 | 50.13180 | -67.57915 | 31790 ft | 403 kts | 200° |
| 2026-05-03 23:55 | 50.08042 | -67.61294 | 31795 ft | 403 kts | 200° |
| 2026-05-03 23:55 | 50.02868 | -67.64690 | 31789 ft | 404 kts | 200° |
| 2026-05-03 23:56 | 49.97677 | -67.68088 | 31783 ft | 404 kts | 200° |
| 2026-05-03 23:56 | 49.92497 | -67.71471 | 31782 ft | 404 kts | 200° |
| 2026-05-03 23:57 | 49.87313 | -67.74848 | 31781 ft | 404 kts | 200° |
| 2026-05-03 23:57 | 49.82156 | -67.78201 | 31780 ft | 404 kts | 200° |
| 2026-05-03 23:58 | 49.76967 | -67.81566 | 31778 ft | 404 kts | 200° |
| 2026-05-03 23:58 | 49.71771 | -67.84927 | 31777 ft | 405 kts | 200° |
| 2026-05-03 23:59 | 49.66565 | -67.88288 | 31772 ft | 405 kts | 200° |
| 2026-05-03 23:59 | 49.61357 | -67.91643 | 31773 ft | 406 kts | 200° |
| 2026-05-04 00:00 | 49.56149 | -67.94989 | 31771 ft | 406 kts | 200° |
| 2026-05-04 00:00 | 49.50928 | -67.98336 | 31772 ft | 407 kts | 200° |
| 2026-05-04 00:01 | 49.46581 | -68.01117 | 31776 ft | 407 kts | 200° |
| 2026-05-04 00:01 | 49.40485 | -68.05008 | 31768 ft | 409 kts | 200° |
| 2026-05-04 00:02 | 49.36078 | -68.07814 | 31772 ft | 409 kts | 200° |
| 2026-05-04 00:02 | 49.30810 | -68.11162 | 31771 ft | 410 kts | 200° |
| 2026-05-04 00:03 | 49.25566 | -68.14487 | 31767 ft | 411 kts | 200° |
| 2026-05-04 00:03 | 49.20280 | -68.17831 | 31767 ft | 411 kts | 200° |
| 2026-05-04 00:04 | 49.14984 | -68.21175 | 31765 ft | 411 kts | 200° |
| 2026-05-04 00:04 | 49.09978 | -68.25487 | 31775 ft | 415 kts | 210° |
| 2026-05-04 00:05 | 49.05160 | -68.30378 | 31768 ft | 416 kts | 210° |
| 2026-05-04 00:05 | 49.00325 | -68.35250 | 31766 ft | 416 kts | 210° |
| 2026-05-04 00:06 | 48.95522 | -68.40055 | 31770 ft | 416 kts | 210° |
| 2026-05-04 00:06 | 48.90669 | -68.44887 | 31774 ft | 417 kts | 210° |
| 2026-05-04 00:07 | 48.85801 | -68.49720 | 31772 ft | 417 kts | 209° |
| 2026-05-04 00:07 | 48.80940 | -68.54534 | 31763 ft | 417 kts | 209° |
| 2026-05-04 00:08 | 48.76097 | -68.59320 | 31765 ft | 418 kts | 209° |
| 2026-05-04 00:08 | 48.71215 | -68.64133 | 31768 ft | 418 kts | 209° |
| 2026-05-04 00:09 | 48.66329 | -68.68939 | 31771 ft | 419 kts | 209° |
| 2026-05-04 00:09 | 48.61434 | -68.73741 | 31771 ft | 419 kts | 209° |
| 2026-05-04 00:10 | 48.56564 | -68.78509 | 31774 ft | 420 kts | 209° |
| 2026-05-04 00:10 | 48.51655 | -68.83304 | 31773 ft | 420 kts | 209° |
| 2026-05-04 00:11 | 48.46731 | -68.88102 | 31774 ft | 421 kts | 209° |
| 2026-05-04 00:11 | 48.41811 | -68.92885 | 31771 ft | 421 kts | 209° |
| 2026-05-04 00:12 | 48.36916 | -68.97633 | 31769 ft | 421 kts | 209° |
| 2026-05-04 00:12 | 48.31980 | -69.02408 | 31775 ft | 422 kts | 209° |
| 2026-05-04 00:13 | 48.27029 | -69.07187 | 31770 ft | 422 kts | 209° |
| 2026-05-04 00:13 | 48.22078 | -69.11955 | 31772 ft | 423 kts | 209° |
| 2026-05-04 00:14 | 48.17114 | -69.16725 | 31772 ft | 423 kts | 209° |
| 2026-05-04 00:14 | 48.12150 | -69.21484 | 31774 ft | 424 kts | 209° |
| 2026-05-04 00:15 | 48.07205 | -69.26213 | 31773 ft | 424 kts | 209° |
| 2026-05-04 00:15 | 48.02221 | -69.30969 | 31773 ft | 425 kts | 209° |
| 2026-05-04 00:16 | 47.97227 | -69.35722 | 31773 ft | 425 kts | 209° |
| 2026-05-04 00:16 | 47.92236 | -69.40463 | 31771 ft | 425 kts | 209° |
| 2026-05-04 00:17 | 47.87235 | -69.45201 | 31771 ft | 426 kts | 209° |
| 2026-05-04 00:17 | 47.82262 | -69.49903 | 31769 ft | 426 kts | 209° |
| 2026-05-04 00:18 | 47.77242 | -69.54637 | 31775 ft | 426 kts | 209° |
| 2026-05-04 00:18 | 47.72223 | -69.59360 | 31770 ft | 427 kts | 209° |
| 2026-05-04 00:19 | 47.67201 | -69.64074 | 31770 ft | 427 kts | 209° |
| 2026-05-04 00:19 | 47.62178 | -69.68779 | 31765 ft | 427 kts | 209° |
| 2026-05-04 00:20 | 47.57182 | -69.73447 | 31766 ft | 427 kts | 210° |
| 2026-05-04 00:20 | 47.52145 | -69.78143 | 31765 ft | 427 kts | 210° |
| 2026-05-04 00:21 | 47.47112 | -69.82825 | 31758 ft | 427 kts | 210° |
| 2026-05-04 00:21 | 47.42073 | -69.87501 | 31760 ft | 428 kts | 210° |
| 2026-05-04 00:22 | 47.37061 | -69.92142 | 31761 ft | 428 kts | 210° |
| 2026-05-04 00:22 | 47.32001 | -69.96816 | 31758 ft | 429 kts | 210° |
| 2026-05-04 00:23 | 47.26939 | -70.01483 | 31761 ft | 430 kts | 210° |
| 2026-05-04 00:23 | 47.21860 | -70.06153 | 31758 ft | 431 kts | 210° |
| 2026-05-04 00:24 | 47.16766 | -70.10827 | 31760 ft | 432 kts | 210° |
| 2026-05-04 00:24 | 47.11661 | -70.15499 | 31757 ft | 433 kts | 210° |
| 2026-05-04 00:25 | 47.06570 | -70.20149 | 31761 ft | 434 kts | 211° |
| 2026-05-04 00:25 | 47.01439 | -70.24825 | 31758 ft | 435 kts | 211° |
| 2026-05-04 00:26 | 46.96274 | -70.29520 | 31761 ft | 436 kts | 211° |
| 2026-05-04 00:26 | 46.91107 | -70.34207 | 31760 ft | 437 kts | 211° |
| 2026-05-04 00:27 | 46.85921 | -70.38899 | 31760 ft | 438 kts | 211° |
| 2026-05-04 00:27 | 46.80724 | -70.43592 | 31766 ft | 439 kts | 211° |
| 2026-05-04 00:28 | 46.75512 | -70.48287 | 31767 ft | 440 kts | 211° |
| 2026-05-04 00:28 | 46.70291 | -70.52979 | 31772 ft | 441 kts | 211° |
| 2026-05-04 00:29 | 46.65050 | -70.57678 | 31767 ft | 442 kts | 211° |
| 2026-05-04 00:29 | 46.59811 | -70.62365 | 31778 ft | 442 kts | 211° |
| 2026-05-04 00:30 | 46.54602 | -70.67014 | 31776 ft | 442 kts | 212° |
| 2026-05-04 00:30 | 46.49350 | -70.71691 | 31779 ft | 442 kts | 212° |
| 2026-05-04 00:31 | 46.44100 | -70.76356 | 31780 ft | 442 kts | 212° |
| 2026-05-04 00:31 | 46.38881 | -70.80982 | 31788 ft | 442 kts | 212° |
| 2026-05-04 00:32 | 46.33625 | -70.85630 | 31789 ft | 442 kts | 212° |
| 2026-05-04 00:32 | 46.28371 | -70.90266 | 31786 ft | 442 kts | 212° |
| 2026-05-04 00:33 | 46.20487 | -70.97204 | 31793 ft | 443 kts | 212° |
| 2026-05-04 00:34 | 46.15214 | -71.01830 | 31799 ft | 443 kts | 212° |
| 2026-05-04 00:34 | 46.09938 | -71.06448 | 31797 ft | 444 kts | 212° |
| 2026-05-04 00:35 | 46.04689 | -71.11034 | 31804 ft | 444 kts | 212° |
| 2026-05-04 00:35 | 45.99394 | -71.15648 | 31808 ft | 445 kts | 212° |
| 2026-05-04 00:36 | 45.94085 | -71.20264 | 31806 ft | 446 kts | 212° |
| 2026-05-04 00:36 | 45.88770 | -71.24875 | 31817 ft | 447 kts | 212° |
| 2026-05-04 00:37 | 45.83445 | -71.29484 | 31812 ft | 447 kts | 212° |
| 2026-05-04 00:37 | 45.78101 | -71.34099 | 31814 ft | 448 kts | 212° |
| 2026-05-04 00:38 | 45.72756 | -71.38709 | 31820 ft | 448 kts | 212° |
| 2026-05-04 00:38 | 45.67444 | -71.43275 | 31815 ft | 448 kts | 212° |
| 2026-05-04 00:39 | 45.62097 | -71.47860 | 31815 ft | 448 kts | 213° |
| 2026-05-04 00:39 | 45.56732 | -71.52450 | 31808 ft | 448 kts | 213° |
| 2026-05-04 00:40 | 45.51375 | -71.57024 | 31807 ft | 448 kts | 213° |
| 2026-05-04 00:40 | 45.46017 | -71.61589 | 31803 ft | 448 kts | 213° |
| 2026-05-04 00:41 | 45.40664 | -71.66140 | 31807 ft | 448 kts | 213° |
| 2026-05-04 00:41 | 45.35330 | -71.70664 | 31805 ft | 449 kts | 213° |
| 2026-05-04 00:42 | 45.29967 | -71.75203 | 31806 ft | 449 kts | 213° |
| 2026-05-04 00:42 | 45.24590 | -71.79744 | 31815 ft | 449 kts | 213° |
| 2026-05-04 00:43 | 45.19213 | -71.84274 | 31816 ft | 450 kts | 213° |
| 2026-05-04 00:43 | 45.13831 | -71.88799 | 31824 ft | 450 kts | 213° |
| 2026-05-04 00:44 | 45.08445 | -71.93317 | 31825 ft | 450 kts | 213° |
| 2026-05-04 00:44 | 45.03054 | -71.97829 | 31830 ft | 450 kts | 213° |
| 2026-05-04 00:45 | 44.97652 | -72.02340 | 31829 ft | 451 kts | 213° |
| 2026-05-04 00:45 | 44.92282 | -72.06815 | 31829 ft | 451 kts | 213° |
| 2026-05-04 00:46 | 44.86872 | -72.11313 | 31834 ft | 451 kts | 213° |
| 2026-05-04 00:46 | 44.81452 | -72.15809 | 31827 ft | 451 kts | 213° |
| 2026-05-04 00:47 | 44.76068 | -72.20266 | 31834 ft | 451 kts | 213° |
| 2026-05-04 00:47 | 44.70654 | -72.24737 | 31836 ft | 450 kts | 213° |
| 2026-05-04 00:48 | 44.65248 | -72.29193 | 31845 ft | 450 kts | 213° |
| 2026-05-04 00:48 | 44.59834 | -72.33646 | 31836 ft | 451 kts | 213° |
| 2026-05-04 00:49 | 44.54417 | -72.38091 | 31833 ft | 450 kts | 213° |
| 2026-05-04 00:49 | 44.49038 | -72.42495 | 31845 ft | 450 kts | 213° |
| 2026-05-04 00:50 | 44.43626 | -72.46917 | 31842 ft | 450 kts | 213° |
| 2026-05-04 00:50 | 44.39121 | -72.50591 | 31846 ft | 450 kts | 213° |
| 2026-05-04 00:51 | 44.33714 | -72.54991 | 31879 ft | 450 kts | 213° |
| 2026-05-04 00:51 | 44.28301 | -72.59387 | 31875 ft | 449 kts | 213° |
| 2026-05-04 00:52 | 44.22928 | -72.63740 | 31877 ft | 449 kts | 213° |
| 2026-05-04 00:52 | 44.17533 | -72.68102 | 31877 ft | 448 kts | 213° |
| 2026-05-04 00:53 | 44.12141 | -72.72453 | 31880 ft | 447 kts | 213° |
| 2026-05-04 00:53 | 44.06753 | -72.76791 | 31872 ft | 447 kts | 213° |
| 2026-05-04 00:54 | 44.01374 | -72.81113 | 31876 ft | 446 kts | 213° |
| 2026-05-04 00:54 | 43.95996 | -72.85425 | 31864 ft | 446 kts | 213° |
| 2026-05-04 00:55 | 43.90620 | -72.89726 | 31871 ft | 446 kts | 213° |
| 2026-05-04 00:55 | 43.85245 | -72.94018 | 31863 ft | 446 kts | 213° |
| 2026-05-04 00:56 | 43.79874 | -72.98297 | 31856 ft | 445 kts | 213° |
| 2026-05-04 00:56 | 43.74527 | -73.02548 | 31860 ft | 445 kts | 213° |
| 2026-05-04 00:57 | 43.69149 | -73.06815 | 31856 ft | 445 kts | 213° |
| 2026-05-04 00:57 | 43.63761 | -73.11081 | 31864 ft | 446 kts | 213° |
| 2026-05-04 00:58 | 43.58379 | -73.15333 | 31860 ft | 446 kts | 213° |
| 2026-05-04 00:58 | 43.52989 | -73.19583 | 31865 ft | 446 kts | 213° |
| 2026-05-04 00:59 | 43.47598 | -73.23824 | 31856 ft | 446 kts | 213° |
| 2026-05-04 00:59 | 43.42197 | -73.28065 | 31867 ft | 447 kts | 213° |
| 2026-05-04 01:00 | 43.36832 | -73.32269 | 31862 ft | 447 kts | 213° |
| 2026-05-04 01:00 | 43.31396 | -73.36519 | 31867 ft | 447 kts | 213° |
| 2026-05-04 01:01 | 43.26029 | -73.40707 | 31873 ft | 446 kts | 213° |
| 2026-05-04 01:01 | 43.20627 | -73.44913 | 31868 ft | 445 kts | 213° |
| 2026-05-04 01:02 | 43.15242 | -73.49099 | 31870 ft | 445 kts | 213° |
| 2026-05-04 01:02 | 43.09852 | -73.53278 | 31873 ft | 445 kts | 213° |
| 2026-05-04 01:03 | 43.04469 | -73.57445 | 31880 ft | 444 kts | 213° |
| 2026-05-04 01:03 | 42.99130 | -73.61569 | 31882 ft | 443 kts | 213° |
| 2026-05-04 01:04 | 42.93770 | -73.65700 | 31900 ft | 442 kts | 214° |
| 2026-05-04 01:04 | 42.88426 | -73.69813 | 31906 ft | 441 kts | 214° |
| 2026-05-04 01:05 | 42.83074 | -73.73923 | 31913 ft | 440 kts | 214° |
| 2026-05-04 01:05 | 42.77748 | -73.78005 | 31915 ft | 439 kts | 214° |
| 2026-05-04 01:06 | 42.72209 | -73.81603 | 31915 ft | 445 kts | 204° |
| 2026-05-04 01:06 | 42.66346 | -73.84197 | 31907 ft | 446 kts | 203° |
| 2026-05-04 01:07 | 42.60437 | -73.86762 | 31912 ft | 445 kts | 203° |
| 2026-05-04 01:07 | 42.54539 | -73.89366 | 31910 ft | 445 kts | 204° |
| 2026-05-04 01:08 | 42.48646 | -73.91992 | 31907 ft | 446 kts | 204° |
| 2026-05-04 01:08 | 42.42753 | -73.94621 | 31897 ft | 446 kts | 204° |
| 2026-05-04 01:09 | 42.36847 | -73.97251 | 31486 ft | 453 kts | 204° |
| 2026-05-04 01:09 | 42.33834 | -73.98594 | 30769 ft | 456 kts | 204° |
| 2026-05-04 01:09 | 42.30873 | -73.99905 | 30223 ft | 449 kts | 204° |
| 2026-05-04 01:09 | 42.27919 | -74.01209 | 29553 ft | 444 kts | 204° |
| 2026-05-04 01:10 | 42.25001 | -74.02496 | 28918 ft | 438 kts | 204° |
| 2026-05-04 01:10 | 42.22119 | -74.03768 | 28324 ft | 432 kts | 204° |
| 2026-05-04 01:10 | 42.19282 | -74.05020 | 27748 ft | 425 kts | 204° |
| 2026-05-04 01:10 | 42.16488 | -74.06252 | 27167 ft | 420 kts | 204° |
| 2026-05-04 01:11 | 42.13724 | -74.07472 | 26601 ft | 415 kts | 204° |
| 2026-05-04 01:11 | 42.11037 | -74.08657 | 26040 ft | 411 kts | 204° |
| 2026-05-04 01:11 | 42.08330 | -74.09851 | 25505 ft | 408 kts | 204° |
| 2026-05-04 01:11 | 42.05647 | -74.11032 | 24948 ft | 404 kts | 204° |
| 2026-05-04 01:12 | 42.02989 | -74.12201 | 24420 ft | 400 kts | 204° |
| 2026-05-04 01:12 | 42.00348 | -74.13362 | 23888 ft | 398 kts | 204° |
| 2026-05-04 01:12 | 41.97728 | -74.14513 | 23338 ft | 395 kts | 204° |
| 2026-05-04 01:12 | 41.95118 | -74.15657 | 22732 ft | 392 kts | 204° |
| 2026-05-04 01:13 | 41.92563 | -74.16776 | 22193 ft | 389 kts | 204° |
| 2026-05-04 01:13 | 41.90484 | -74.17686 | 21760 ft | 386 kts | 204° |
| 2026-05-04 01:13 | 41.87931 | -74.18802 | 21239 ft | 382 kts | 204° |
| 2026-05-04 01:13 | 41.85412 | -74.19904 | 20718 ft | 380 kts | 204° |
| 2026-05-04 01:14 | 41.82906 | -74.20999 | 20215 ft | 376 kts | 204° |
| 2026-05-04 01:14 | 41.80422 | -74.22083 | 19725 ft | 373 kts | 204° |
| 2026-05-04 01:14 | 41.77959 | -74.23158 | 19227 ft | 371 kts | 204° |
| 2026-05-04 01:14 | 41.75533 | -74.24216 | 18742 ft | 370 kts | 204° |
| 2026-05-04 01:15 | 41.73090 | -74.25280 | 18252 ft | 369 kts | 203° |
| 2026-05-04 01:15 | 41.70645 | -74.26344 | 17701 ft | 368 kts | 204° |
| 2026-05-04 01:15 | 41.68214 | -74.27400 | 17209 ft | 364 kts | 204° |
| 2026-05-04 01:15 | 41.65821 | -74.28438 | 16735 ft | 361 kts | 204° |
| 2026-05-04 01:16 | 41.63438 | -74.29471 | 16238 ft | 359 kts | 204° |
| 2026-05-04 01:16 | 41.61063 | -74.30501 | 15764 ft | 357 kts | 204° |
| 2026-05-04 01:16 | 41.58739 | -74.31509 | 15294 ft | 355 kts | 204° |
| 2026-05-04 01:16 | 41.56388 | -74.32526 | 14783 ft | 355 kts | 204° |
| 2026-05-04 01:17 | 41.54046 | -74.33539 | 14336 ft | 353 kts | 204° |
| 2026-05-04 01:17 | 41.51732 | -74.34537 | 13997 ft | 347 kts | 204° |
| 2026-05-04 01:17 | 41.49436 | -74.35529 | 13537 ft | 346 kts | 204° |
| 2026-05-04 01:17 | 41.47152 | -74.36516 | 13057 ft | 343 kts | 204° |
| 2026-05-04 01:18 | 41.44888 | -74.37492 | 12663 ft | 339 kts | 204° |
| 2026-05-04 01:18 | 41.42648 | -74.38457 | 12250 ft | 336 kts | 204° |
| 2026-05-04 01:18 | 41.40425 | -74.39415 | 11555 ft | 341 kts | 204° |
| 2026-05-04 01:18 | 41.38144 | -74.40401 | 10924 ft | 345 kts | 204° |
| 2026-05-04 01:19 | 41.35862 | -74.41381 | 10558 ft | 339 kts | 204° |
| 2026-05-04 01:19 | 41.33695 | -74.42305 | 10402 ft | 324 kts | 204° |
| 2026-05-04 01:19 | 41.31604 | -74.43195 | 10246 ft | 307 kts | 205° |
| 2026-05-04 01:19 | 41.29532 | -74.43699 | 10095 ft | 304 kts | 183° |
| 2026-05-04 01:20 | 41.27502 | -74.43089 | 10004 ft | 297 kts | 159° |
| 2026-05-04 01:20 | 41.25723 | -74.41754 | 9769 ft | 291 kts | 151° |
| 2026-05-04 01:20 | 41.24015 | -74.40304 | 9451 ft | 292 kts | 150° |
| 2026-05-04 01:20 | 41.22301 | -74.38822 | 9161 ft | 297 kts | 150° |
| 2026-05-04 01:21 | 41.20543 | -74.37307 | 8844 ft | 303 kts | 150° |
| 2026-05-04 01:21 | 41.18773 | -74.35792 | 8509 ft | 302 kts | 150° |
| 2026-05-04 01:21 | 41.17014 | -74.34294 | 8168 ft | 298 kts | 150° |
| 2026-05-04 01:21 | 41.15303 | -74.32844 | 7925 ft | 294 kts | 151° |
| 2026-05-04 01:22 | 41.13579 | -74.31389 | 7592 ft | 293 kts | 151° |
| 2026-05-04 01:22 | 41.11859 | -74.29941 | 7291 ft | 293 kts | 151° |
| 2026-05-04 01:22 | 41.10139 | -74.28495 | 6982 ft | 292 kts | 152° |
| 2026-05-04 01:22 | 41.08431 | -74.27062 | 6679 ft | 290 kts | 151° |
| 2026-05-04 01:23 | 41.06728 | -74.25634 | 6370 ft | 290 kts | 151° |
| 2026-05-04 01:23 | 41.05031 | -74.24211 | 6040 ft | 291 kts | 151° |
| 2026-05-04 01:23 | 41.03317 | -74.22775 | 5700 ft | 286 kts | 151° |
| 2026-05-04 01:23 | 41.01665 | -74.21392 | 5396 ft | 275 kts | 151° |
| 2026-05-04 01:24 | 41.00078 | -74.20063 | 5102 ft | 265 kts | 151° |
| 2026-05-04 01:24 | 40.98546 | -74.18782 | 4818 ft | 256 kts | 152° |
| 2026-05-04 01:24 | 40.97064 | -74.17544 | 4546 ft | 249 kts | 152° |
| 2026-05-04 01:24 | 40.95612 | -74.16335 | 4275 ft | 243 kts | 151° |
| 2026-05-04 01:25 | 40.94235 | -74.15185 | 4154 ft | 236 kts | 152° |
| 2026-05-04 01:25 | 40.92846 | -74.13914 | 4069 ft | 241 kts | 148° |
| 2026-05-04 01:25 | 40.91501 | -74.12609 | 3955 ft | 236 kts | 147° |
| 2026-05-04 01:25 | 40.90322 | -74.11462 | 3855 ft | 230 kts | 147° |
| 2026-05-04 01:26 | 40.89047 | -74.10231 | 3717 ft | 227 kts | 148° |
| 2026-05-04 01:26 | 40.87770 | -74.09004 | 3477 ft | 226 kts | 148° |
| 2026-05-04 01:26 | 40.86498 | -74.07789 | 3240 ft | 223 kts | 150° |
| 2026-05-04 01:26 | 40.85107 | -74.07131 | 2978 ft | 203 kts | 190° |
| 2026-05-04 01:27 | 40.83777 | -74.07576 | 2830 ft | 199 kts | 206° |
| 2026-05-04 01:27 | 40.82464 | -74.08173 | 2573 ft | 195 kts | 206° |
| 2026-05-04 01:27 | 40.81258 | -74.08828 | 2353 ft | 181 kts | 211° |
| 2026-05-04 01:27 | 40.80125 | -74.09536 | 2161 ft | 180 kts | 212° |
| 2026-05-04 01:28 | 40.79008 | -74.10249 | 2035 ft | 179 kts | 211° |
| 2026-05-04 01:28 | 40.77901 | -74.10955 | 1824 ft | 172 kts | 211° |
| 2026-05-04 01:28 | 40.76867 | -74.11614 | 1572 ft | 162 kts | 211° |
| 2026-05-04 01:28 | 40.75901 | -74.12230 | 1371 ft | 147 kts | 211° |
| 2026-05-04 01:29 | 40.75017 | -74.12795 | 1172 ft | 138 kts | 211° |
| 2026-05-04 01:29 | 40.74149 | -74.13350 | 977 ft | 141 kts | 210° |
| 2026-05-04 01:29 | 40.73245 | -74.13933 | 799 ft | 147 kts | 210° |
| 2026-05-04 01:29 | 40.72332 | -74.14536 | 600 ft | 148 kts | 208° |
| 2026-05-04 01:30 | 40.71402 | -74.15115 | 418 ft | 149 kts | 207° |
| 2026-05-04 01:30 | 40.70489 | -74.15679 | 183 ft | 141 kts | 207° |
| 2026-05-04 01:30 | 40.69617 | -74.16239 | 30 ft | 135 kts | 207° |
| 2026-05-04 01:30 | 40.68870 | -74.16718 | 19 ft | 99 kts | 206° |
| 2026-05-04 01:31 | 40.68385 | -74.17025 | 20 ft | 56 kts | 206° |
| 2026-05-04 01:31 | 40.68098 | -74.17207 | 18 ft | 35 kts | 205° |
| 2026-05-04 01:31 | 40.67963 | -74.17396 | 15 ft | 19 kts | 252° |
| 2026-05-04 01:31 | 40.67984 | -74.17495 | 14 ft | 7 kts | 0° |
| 2026-05-04 01:32 | 40.68030 | -74.17473 | 14 ft | 8 kts | 26° |
| 2026-05-04 01:32 | 40.68082 | -74.17439 | 14 ft | 9 kts | 26° |
| 2026-05-04 01:32 | 40.68141 | -74.17402 | 16 ft | 9 kts | 24° |
| 2026-05-04 01:32 | 40.68200 | -74.17366 | 18 ft | 9 kts | 25° |
| 2026-05-04 01:33 | 40.68257 | -74.17331 | 19 ft | 9 kts | 25° |
| 2026-05-04 01:33 | 40.68312 | -74.17295 | 20 ft | 9 kts | 26° |
| 2026-05-04 01:33 | 40.68370 | -74.17258 | 20 ft | 9 kts | 26° |
| 2026-05-04 01:33 | 40.68427 | -74.17221 | 22 ft | 9 kts | 26° |
| 2026-05-04 01:34 | 40.68482 | -74.17186 | 23 ft | 9 kts | 26° |
| 2026-05-04 01:34 | 40.68543 | -74.17147 | 22 ft | 11 kts | 26° |
| 2026-05-04 01:34 | 40.68621 | -74.17096 | 20 ft | 14 kts | 26° |
| 2026-05-04 01:34 | 40.68711 | -74.17038 | 20 ft | 15 kts | 26° |
| 2026-05-04 01:35 | 40.68811 | -74.16976 | 18 ft | 17 kts | 25° |
| 2026-05-04 01:35 | 40.68919 | -74.16908 | 18 ft | 17 kts | 26° |
| 2026-05-04 01:35 | 40.69026 | -74.16839 | 20 ft | 17 kts | 26° |
| 2026-05-04 01:35 | 40.69129 | -74.16773 | 21 ft | 16 kts | 26° |
| 2026-05-04 01:36 | 40.69228 | -74.16710 | 25 ft | 15 kts | 26° |
| 2026-05-04 01:36 | 40.69326 | -74.16648 | 24 ft | 16 kts | 25° |
| 2026-05-04 01:36 | 40.69435 | -74.16580 | 21 ft | 18 kts | 25° |
| 2026-05-04 01:36 | 40.69546 | -74.16509 | 20 ft | 18 kts | 26° |
| 2026-05-04 01:37 | 40.69587 | -74.16491 | 18 ft | 2 kts | 349° |
| 2026-05-04 01:37 | 40.69602 | -74.16505 | 20 ft | 4 kts | 316° |
| 2026-05-04 01:37 | 40.69619 | -74.16546 | 19 ft | 8 kts | 297° |
| 2026-05-04 01:37 | 40.69659 | -74.16657 | 19 ft | 18 kts | 295° |
| 2026-05-04 01:38 | 40.69672 | -74.16798 | 18 ft | 16 kts | 253° |
| 2026-05-04 01:38 | 40.69634 | -74.16948 | 17 ft | 18 kts | 251° |
| 2026-05-04 01:38 | 40.69626 | -74.17010 | 18 ft | 1 kts | 292° |
| 2026-05-04 01:38 | 40.69652 | -74.17035 | 19 ft | 11 kts | 336° |
| 2026-05-04 01:39 | 40.69701 | -74.17059 | 19 ft | 11 kts | 338° |
| 2026-05-04 01:39 | 40.69767 | -74.17113 | 19 ft | 11 kts | 320° |
| 2026-05-04 01:39 | 40.69778 | -74.17154 | 21 ft | 3 kts | 249° |
| 2026-05-04 01:39 | 40.69765 | -74.17184 | 20 ft | 6 kts | 233° |
| 2026-05-04 01:40 | 40.69733 | -74.17237 | 21 ft | 8 kts | 230° |
| 2026-05-04 01:40 | 40.69709 | -74.17303 | 21 ft | 8 kts | 246° |
| 2026-05-04 01:40 | 40.69673 | -74.17362 | 20 ft | 8 kts | 222° |
| 2026-05-04 01:40 | 40.69626 | -74.17374 | 18 ft | 1 kts | 148° |
| 2026-05-04 01:41 | 40.69621 | -74.17369 | 18 ft | 1 kts | 144° |
| 2026-05-04 01:41 | 40.69613 | -74.17361 | 18 ft | 2 kts | 143° |
| 2026-05-04 01:41 | 40.69603 | -74.17351 | 19 ft | 2 kts | 143° |
| 2026-05-04 01:41 | 40.69601 | -74.17349 | 19 ft | 0 kts | 143° |